createdAt,value
2023-06-18T00:02:00.966Z,18.70
2023-06-18T00:04:28.417Z,18.60
2023-06-18T00:06:56.619Z,18.50
2023-06-18T00:09:23.982Z,18.50
2023-06-18T00:11:52.337Z,18.50
2023-06-18T00:14:19.854Z,18.40
2023-06-18T00:16:47.202Z,18.30
2023-06-18T00:19:15.477Z,18.30
2023-06-18T00:21:42.599Z,18.40
2023-06-18T00:24:09.604Z,18.40
2023-06-18T00:26:36.862Z,18.40
2023-06-18T00:29:03.985Z,18.30
2023-06-18T00:31:33.776Z,18.30
2023-06-18T00:34:07.845Z,18.40
2023-06-18T00:36:40.147Z,18.30
2023-06-18T00:39:08.186Z,18.30
2023-06-18T00:41:36.273Z,18.30
2023-06-18T00:44:04.214Z,18.20
2023-06-18T00:46:36.517Z,18.30
2023-06-18T00:49:03.944Z,18.30
2023-06-18T00:51:31.574Z,18.30
2023-06-18T00:53:59.306Z,18.30
2023-06-18T00:56:30.587Z,18.40
2023-06-18T00:58:58.572Z,18.40
2023-06-18T01:01:27.279Z,18.30
2023-06-18T01:03:58.266Z,18.30
2023-06-18T01:06:27.970Z,18.30
2023-06-18T01:08:57.251Z,18.30
2023-06-18T01:11:25.290Z,18.30
2023-06-18T01:13:53.480Z,18.30
2023-06-18T01:16:24.420Z,18.30
2023-06-18T01:18:53.714Z,18.30
2023-06-18T01:21:24.359Z,18.30
2023-06-18T01:23:58.661Z,18.30
2023-06-18T01:26:27.723Z,18.30
2023-06-18T01:29:00.127Z,18.30
2023-06-18T01:31:29.519Z,18.30
2023-06-18T01:33:57.639Z,18.20
2023-06-18T01:36:41.980Z,18.20
2023-06-18T01:39:24.222Z,18.30
2023-06-18T01:41:57.193Z,18.20
2023-06-18T01:44:25.928Z,18.20
2023-06-18T01:46:56.131Z,18.20
2023-06-18T01:49:24.810Z,18.10
2023-06-18T01:51:53.654Z,18.10
2023-06-18T01:54:22.570Z,18.10
2023-06-18T01:56:50.489Z,18.00
2023-06-18T01:59:17.500Z,18.10
2023-06-18T02:01:44.434Z,18.00
2023-06-18T02:04:11.382Z,18.00
2023-06-18T02:06:38.408Z,18.00
2023-06-18T02:09:05.616Z,17.90
2023-06-18T02:11:32.587Z,17.90
2023-06-18T02:13:59.557Z,18.00
2023-06-18T02:16:26.656Z,17.90
2023-06-18T02:18:53.783Z,17.90
2023-06-18T02:21:21.262Z,17.90
2023-06-18T02:23:48.220Z,17.90
2023-06-18T02:26:18.237Z,18.00
2023-06-18T02:28:45.803Z,18.00
2023-06-18T02:31:12.756Z,17.90
2023-06-18T02:33:39.710Z,18.00
2023-06-18T02:36:06.725Z,17.90
2023-06-18T02:38:33.836Z,17.90
2023-06-18T02:41:01.171Z,17.90
2023-06-18T02:43:32.256Z,18.00
2023-06-18T02:45:59.358Z,18.00
2023-06-18T02:48:26.360Z,18.00
2023-06-18T02:50:53.370Z,18.10
2023-06-18T02:53:20.323Z,18.10
2023-06-18T02:55:47.301Z,18.10
2023-06-18T02:58:30.284Z,18.20
2023-06-18T03:01:00.317Z,18.20
2023-06-18T03:03:27.833Z,18.20
2023-06-18T03:05:55.367Z,18.20
2023-06-18T03:08:22.732Z,18.20
2023-06-18T03:10:49.780Z,18.30
2023-06-18T03:13:18.242Z,18.30
2023-06-18T03:15:45.214Z,18.30
2023-06-18T03:18:12.691Z,18.40
2023-06-18T03:20:39.765Z,18.40
2023-06-18T03:23:06.727Z,18.40
2023-06-18T03:25:33.742Z,18.40
2023-06-18T03:28:00.858Z,18.40
2023-06-18T03:30:28.119Z,18.40
2023-06-18T03:32:57.494Z,18.40
2023-06-18T03:35:24.840Z,18.50
2023-06-18T03:37:51.986Z,18.50
2023-06-18T03:40:19.379Z,18.50
2023-06-18T03:42:46.767Z,18.50
2023-06-18T03:45:13.819Z,18.50
2023-06-18T03:47:41.115Z,18.40
2023-06-18T03:50:09.063Z,18.50
2023-06-18T03:52:36.056Z,18.50
2023-06-18T03:55:04.109Z,18.60
2023-06-18T03:57:31.667Z,18.60
2023-06-18T03:59:58.906Z,18.60
2023-06-18T04:02:26.027Z,18.60
2023-06-18T04:04:54.284Z,18.60
2023-06-18T04:07:21.260Z,18.60
2023-06-18T04:09:48.561Z,18.60
2023-06-18T04:12:15.499Z,18.70
2023-06-18T04:14:42.860Z,18.70
2023-06-18T04:17:09.853Z,18.70
2023-06-18T04:19:37.308Z,18.70
2023-06-18T04:22:04.573Z,18.60
2023-06-18T04:24:31.784Z,18.60
2023-06-18T04:26:58.866Z,18.70
2023-06-18T04:29:26.138Z,18.70
2023-06-18T04:31:53.133Z,18.70
2023-06-18T04:34:20.674Z,18.70
2023-06-18T04:36:47.639Z,18.80
2023-06-18T04:39:14.727Z,18.80
2023-06-18T04:41:41.757Z,18.70
2023-06-18T04:44:09.755Z,18.70
2023-06-18T04:46:36.708Z,18.80
2023-06-18T04:49:03.718Z,18.80
2023-06-18T04:51:31.118Z,18.80
2023-06-18T04:53:58.091Z,18.80
2023-06-18T04:56:25.043Z,18.80
2023-06-18T04:58:51.975Z,18.70
2023-06-18T05:01:18.989Z,18.70
2023-06-18T05:03:46.025Z,18.70
2023-06-18T05:06:13.005Z,18.70
2023-06-18T05:08:41.238Z,18.60
2023-06-18T05:11:08.232Z,18.60
2023-06-18T05:13:35.169Z,18.60
2023-06-18T05:16:02.130Z,18.60
2023-06-18T05:18:29.106Z,18.50
2023-06-18T05:20:56.047Z,18.40
2023-06-18T05:23:23.384Z,18.50
2023-06-18T05:25:50.397Z,18.40
2023-06-18T05:28:17.447Z,18.40
2023-06-18T05:30:45.074Z,18.40
2023-06-18T05:33:12.195Z,18.40
2023-06-18T05:35:39.196Z,18.30
2023-06-18T05:38:06.342Z,18.20
2023-06-18T05:40:33.293Z,18.30
2023-06-18T05:43:00.287Z,18.30
2023-06-18T05:45:27.241Z,18.30
2023-06-18T05:47:54.294Z,18.30
2023-06-18T05:50:21.581Z,18.30
2023-06-18T05:52:48.889Z,18.30
2023-06-18T05:55:16.020Z,18.20
2023-06-18T05:57:43.523Z,18.30
2023-06-18T06:00:11.340Z,18.30
2023-06-18T06:02:38.421Z,18.30
2023-06-18T06:05:05.908Z,18.30
2023-06-18T06:07:32.911Z,18.30
2023-06-18T06:09:59.893Z,18.40
2023-06-18T06:12:27.207Z,18.30
2023-06-18T06:14:54.200Z,18.30
2023-06-18T06:17:21.192Z,18.30
2023-06-18T06:19:48.180Z,18.30
2023-06-18T06:22:15.404Z,18.30
2023-06-18T06:24:42.467Z,18.30
2023-06-18T06:27:09.445Z,18.30
2023-06-18T06:29:36.360Z,18.30
2023-06-18T06:32:03.451Z,18.30
2023-06-18T06:34:30.498Z,18.30
2023-06-18T06:36:57.528Z,18.30
2023-06-18T06:39:24.527Z,18.30
2023-06-18T06:41:51.472Z,18.30
2023-06-18T06:44:18.458Z,18.30
2023-06-18T06:46:45.752Z,18.30
2023-06-18T06:49:12.679Z,18.30
2023-06-18T06:51:39.879Z,18.30
2023-06-18T06:54:07.307Z,18.30
2023-06-18T06:56:34.292Z,18.30
2023-06-18T06:59:01.380Z,18.40
2023-06-18T07:01:28.601Z,18.40
2023-06-18T07:03:55.703Z,18.30
2023-06-18T07:06:22.903Z,18.30
2023-06-18T07:08:51.903Z,18.30
2023-06-18T07:11:18.920Z,18.30
2023-06-18T07:13:46.149Z,18.30
2023-06-18T07:16:13.209Z,18.30
2023-06-18T07:18:40.162Z,18.30
2023-06-18T07:21:07.157Z,18.40
2023-06-18T07:23:34.814Z,18.50
2023-06-18T07:26:01.851Z,18.60
2023-06-18T07:28:28.761Z,18.80
2023-06-18T07:30:55.855Z,18.90
2023-06-18T07:33:22.880Z,19.00
2023-06-18T07:35:49.826Z,19.10
2023-06-18T07:38:16.933Z,19.30
2023-06-18T07:40:43.924Z,19.40
2023-06-18T07:43:11.094Z,19.50
2023-06-18T07:45:38.236Z,19.60
2023-06-18T07:48:05.646Z,19.70
2023-06-18T07:50:32.619Z,19.70
2023-06-18T07:52:59.572Z,19.70
2023-06-18T07:55:26.498Z,19.70
2023-06-18T07:57:53.432Z,19.70
2023-06-18T08:00:20.579Z,19.80
2023-06-18T08:02:48.052Z,19.70
2023-06-18T08:05:15.156Z,19.80
2023-06-18T08:07:42.103Z,19.80
2023-06-18T08:10:09.506Z,19.80
2023-06-18T08:12:36.501Z,19.80
2023-06-18T08:15:03.641Z,19.90
2023-06-18T08:17:30.841Z,19.90
2023-06-18T08:19:57.947Z,19.80
2023-06-18T08:22:24.906Z,19.80
2023-06-18T08:24:51.958Z,19.80
2023-06-18T08:27:19.006Z,19.80
2023-06-18T08:29:45.992Z,19.90
2023-06-18T08:32:14.694Z,19.90
2023-06-18T08:34:46.804Z,19.90
2023-06-18T08:37:14.404Z,19.90
2023-06-18T08:39:41.406Z,19.90
2023-06-18T08:42:10.092Z,19.90
2023-06-18T08:44:37.334Z,19.80
2023-06-18T08:47:05.164Z,19.80
2023-06-18T08:49:34.777Z,19.80
2023-06-18T08:52:06.300Z,19.90
2023-06-18T08:54:34.786Z,19.90
2023-06-18T08:57:14.442Z,19.80
2023-06-18T08:59:43.532Z,19.80
2023-06-18T09:02:15.657Z,19.80
2023-06-18T09:04:42.780Z,19.80
2023-06-18T09:07:09.763Z,19.80
2023-06-18T09:09:37.701Z,19.80
2023-06-18T09:12:05.145Z,19.70
2023-06-18T09:14:33.022Z,19.70
2023-06-18T09:17:00.362Z,19.70
2023-06-18T09:19:28.044Z,19.70
2023-06-18T09:21:55.177Z,19.80
2023-06-18T09:24:25.745Z,19.80
2023-06-18T09:27:02.312Z,19.80
2023-06-18T09:29:33.269Z,19.90
2023-06-18T09:32:20.573Z,19.90
2023-06-18T09:34:47.531Z,20.00
2023-06-18T09:37:15.589Z,20.00
2023-06-18T09:39:42.818Z,20.00
2023-06-18T09:42:12.479Z,20.10
2023-06-18T09:44:44.713Z,20.10
2023-06-18T09:47:14.306Z,20.10
2023-06-18T09:49:43.509Z,20.10
2023-06-18T09:52:11.181Z,20.10
2023-06-18T09:54:40.492Z,20.10
2023-06-18T09:57:08.515Z,20.10
2023-06-18T09:59:35.924Z,20.10
2023-06-18T10:02:03.015Z,20.10
2023-06-18T10:04:33.430Z,20.20
2023-06-18T10:07:04.468Z,20.20
2023-06-18T10:09:35.249Z,20.20
2023-06-18T10:12:03.874Z,20.30
2023-06-18T10:14:32.513Z,20.20
2023-06-18T10:17:19.611Z,20.30
2023-06-18T10:19:58.682Z,20.30
2023-06-18T10:22:29.827Z,20.30
2023-06-18T10:25:16.298Z,20.30
2023-06-18T10:27:44.686Z,20.30
2023-06-18T10:30:12.200Z,20.30
2023-06-18T10:32:39.968Z,20.30
2023-06-18T10:35:09.906Z,20.30
2023-06-18T10:37:41.244Z,20.30
2023-06-18T10:40:09.484Z,20.30
2023-06-18T10:42:36.522Z,20.20
2023-06-18T10:45:17.071Z,20.30
2023-06-18T10:47:45.141Z,20.20
2023-06-18T10:50:16.397Z,20.30
2023-06-18T10:52:45.647Z,20.30
2023-06-18T10:55:15.649Z,20.30
2023-06-18T10:57:45.894Z,20.30
2023-06-18T11:00:29.971Z,20.30
2023-06-18T11:03:17.794Z,20.30
2023-06-18T11:05:53.134Z,20.30
2023-06-18T11:08:35.921Z,20.30
2023-06-18T11:11:14.717Z,20.30
2023-06-18T11:13:52.026Z,20.30
2023-06-18T11:16:18.987Z,20.30
2023-06-18T11:18:46.711Z,20.30
2023-06-18T11:21:19.076Z,20.30
2023-06-18T11:23:47.576Z,20.30
2023-06-18T11:26:19.513Z,20.30
2023-06-18T11:28:51.473Z,20.30
2023-06-18T11:31:18.551Z,20.30
2023-06-18T11:33:48.745Z,20.30
2023-06-18T11:36:20.173Z,20.30
2023-06-18T11:38:48.872Z,20.30
2023-06-18T11:41:22.670Z,20.30
2023-06-18T11:43:52.594Z,20.30
2023-06-18T11:46:31.077Z,20.30
2023-06-18T11:49:00.411Z,20.30
2023-06-18T11:51:30.266Z,20.20
2023-06-18T11:53:57.534Z,20.30
2023-06-18T11:56:26.902Z,20.20
2023-06-18T11:59:04.142Z,20.20
2023-06-18T12:01:33.089Z,20.20
2023-06-18T12:04:08.545Z,20.10
2023-06-18T12:06:37.238Z,20.10
2023-06-18T12:09:13.388Z,20.00
2023-06-18T12:11:51.797Z,19.90
2023-06-18T12:14:59.629Z,19.90
2023-06-18T12:17:36.282Z,19.80
2023-06-18T12:20:08.801Z,19.70
2023-06-18T12:22:36.137Z,19.70
2023-06-18T12:25:03.886Z,19.70
2023-06-18T12:27:31.491Z,19.70
2023-06-18T12:30:09.286Z,19.70
2023-06-18T12:32:37.837Z,19.60
2023-06-18T12:35:16.693Z,19.60
2023-06-18T12:37:45.132Z,19.60
2023-06-18T12:40:21.167Z,19.50
2023-06-18T12:42:48.700Z,19.50
2023-06-18T12:45:17.200Z,19.50
2023-06-18T12:47:47.756Z,19.50
2023-06-18T12:50:35.258Z,19.50
2023-06-18T12:53:18.044Z,19.50
2023-06-18T12:55:52.036Z,19.40
2023-06-18T12:58:24.873Z,19.50
2023-06-18T13:00:58.546Z,19.50
2023-06-18T13:03:28.290Z,19.50
2023-06-18T13:05:58.561Z,19.50
2023-06-18T13:08:25.608Z,19.50
2023-06-18T13:10:53.872Z,19.50
2023-06-18T13:13:21.068Z,19.60
2023-06-18T13:15:49.543Z,19.70
2023-06-18T13:18:20.198Z,19.70
2023-06-18T13:20:48.681Z,19.70
2023-06-18T13:23:16.881Z,19.80
2023-06-18T13:25:44.884Z,19.70
2023-06-18T13:28:12.401Z,19.80
2023-06-18T13:30:40.350Z,19.80
2023-06-18T13:33:07.400Z,19.80
2023-06-18T13:35:34.379Z,19.80
2023-06-18T13:38:01.491Z,19.70
2023-06-18T13:40:29.136Z,19.70
2023-06-18T13:42:56.485Z,19.70
2023-06-18T13:45:25.011Z,19.70
2023-06-18T13:47:52.288Z,19.70
2023-06-18T13:50:19.680Z,19.70
2023-06-18T13:52:46.685Z,19.80
2023-06-18T13:55:13.887Z,19.80
2023-06-18T13:57:41.036Z,19.80
2023-06-18T14:00:09.514Z,19.80
2023-06-18T14:02:36.581Z,19.80
2023-06-18T14:05:03.981Z,19.80
2023-06-18T14:07:33.441Z,19.80
2023-06-18T14:10:00.684Z,19.80
2023-06-18T14:12:27.920Z,19.80
2023-06-18T14:14:56.166Z,19.80
2023-06-18T14:17:23.644Z,19.80
2023-06-18T14:19:50.776Z,19.80
2023-06-18T14:22:19.765Z,19.80
2023-06-18T14:24:46.806Z,19.80
2023-06-18T14:27:14.138Z,19.70
2023-06-18T14:29:41.443Z,19.70
2023-06-18T14:32:08.515Z,19.70
2023-06-18T14:34:35.653Z,19.70
2023-06-18T14:37:02.668Z,19.70
2023-06-18T14:39:29.624Z,19.70
2023-06-18T14:41:56.709Z,19.70
2023-06-18T14:44:25.261Z,19.60
2023-06-18T14:46:52.318Z,19.60
2023-06-18T14:49:19.302Z,19.60
2023-06-18T14:51:46.247Z,19.60
2023-06-18T14:54:13.791Z,19.60
2023-06-18T14:56:43.517Z,19.50
2023-06-18T14:59:11.215Z,19.60
2023-06-18T15:01:38.679Z,19.50
2023-06-18T15:04:08.734Z,19.50
2023-06-18T15:06:36.831Z,19.50
2023-06-18T15:09:06.019Z,19.50
2023-06-18T15:11:33.507Z,19.40
2023-06-18T15:14:00.750Z,19.40
2023-06-18T15:16:29.847Z,19.40
2023-06-18T15:18:56.884Z,19.40
2023-06-18T15:21:23.839Z,19.40
2023-06-18T15:23:51.201Z,19.30
2023-06-18T15:26:21.362Z,19.30
2023-06-18T15:28:48.822Z,19.40
2023-06-18T15:31:18.202Z,19.30
2023-06-18T15:33:46.756Z,19.30
2023-06-18T15:36:13.865Z,19.30
2023-06-18T15:38:40.845Z,19.30
2023-06-18T15:41:07.922Z,19.30
2023-06-18T15:43:35.014Z,19.40
2023-06-18T15:46:02.096Z,19.30
2023-06-18T15:48:29.159Z,19.30
2023-06-18T15:50:57.394Z,19.30
2023-06-18T15:53:24.398Z,19.30
2023-06-18T15:55:51.729Z,19.30
2023-06-18T15:58:20.853Z,19.40
2023-06-18T16:00:48.096Z,19.40
2023-06-18T16:03:15.109Z,19.40
2023-06-18T16:05:42.329Z,19.40
2023-06-18T16:08:09.640Z,19.40
2023-06-18T16:10:38.354Z,19.30
2023-06-18T16:13:06.688Z,19.30
2023-06-18T16:15:34.958Z,19.30
2023-06-18T16:18:09.320Z,19.30
2023-06-18T16:20:38.164Z,19.20
2023-06-18T16:23:05.779Z,19.10
2023-06-18T16:25:33.060Z,19.10
2023-06-18T16:28:01.120Z,19.10
2023-06-18T16:30:29.456Z,19.10
2023-06-18T16:32:59.961Z,19.10
2023-06-18T16:35:27.416Z,19.10
2023-06-18T16:37:55.147Z,19.10
2023-06-18T16:40:23.221Z,19.00
2023-06-18T16:42:50.261Z,18.90
2023-06-18T16:45:17.478Z,18.90
2023-06-18T16:47:44.616Z,19.00
2023-06-18T16:50:11.704Z,18.90
2023-06-18T16:52:38.670Z,19.00
2023-06-18T16:55:07.565Z,19.00
2023-06-18T16:57:37.899Z,19.00
2023-06-18T17:00:06.273Z,19.00
2023-06-18T17:02:33.469Z,19.00
2023-06-18T17:05:00.586Z,19.00
2023-06-18T17:07:28.473Z,19.00
2023-06-18T17:09:55.623Z,19.00
2023-06-18T17:12:22.791Z,19.00
2023-06-18T17:14:49.783Z,19.00
2023-06-18T17:17:16.812Z,19.00
2023-06-18T17:19:43.857Z,19.10
2023-06-18T17:22:11.643Z,19.10
2023-06-18T17:24:40.360Z,19.10
2023-06-18T17:27:08.165Z,19.10
2023-06-18T17:29:35.827Z,19.10
2023-06-18T17:32:03.621Z,19.00
2023-06-18T17:34:31.441Z,19.10
2023-06-18T17:36:58.550Z,19.00
2023-06-18T17:39:25.716Z,19.10
2023-06-18T17:41:52.765Z,19.10
2023-06-18T17:44:19.817Z,19.00
2023-06-18T17:46:47.056Z,19.00
2023-06-18T17:49:16.000Z,18.90
2023-06-18T17:51:44.426Z,18.90
2023-06-18T17:54:14.082Z,18.90
2023-06-18T17:56:41.351Z,18.90
2023-06-18T17:59:08.337Z,18.90
2023-06-18T18:01:35.367Z,19.00
2023-06-18T18:04:02.512Z,19.00
2023-06-18T18:06:29.648Z,19.00
2023-06-18T18:08:56.742Z,18.90
2023-06-18T18:11:28.629Z,18.90
2023-06-18T18:13:56.452Z,18.90
2023-06-18T18:16:23.807Z,19.00
2023-06-18T18:18:52.396Z,18.90
2023-06-18T18:21:19.388Z,18.90
2023-06-18T18:23:46.332Z,18.90
2023-06-18T18:26:14.196Z,18.90
2023-06-18T18:28:41.530Z,18.90
2023-06-18T18:31:09.053Z,18.80
2023-06-18T18:33:36.186Z,18.80
2023-06-18T18:36:06.473Z,18.80
2023-06-18T18:38:33.479Z,18.80
2023-06-18T18:41:00.444Z,18.80
2023-06-18T18:43:30.306Z,18.70
2023-06-18T18:45:58.116Z,18.70
2023-06-18T18:48:25.179Z,18.70
2023-06-18T18:50:52.200Z,18.70
2023-06-18T18:53:19.281Z,18.60
2023-06-18T18:55:46.315Z,18.50
2023-06-18T18:58:13.352Z,18.60
2023-06-18T19:00:41.196Z,18.60
2023-06-18T19:03:08.316Z,18.50
2023-06-18T19:05:36.244Z,18.50
2023-06-18T19:08:03.246Z,18.50
2023-06-18T19:10:30.285Z,18.50
2023-06-18T19:12:57.345Z,18.50
2023-06-18T19:15:24.356Z,18.40
2023-06-18T19:17:51.420Z,18.40
2023-06-18T19:20:18.608Z,18.40
2023-06-18T19:22:45.640Z,18.40
2023-06-18T19:25:14.065Z,18.30
2023-06-18T19:27:41.149Z,18.30
2023-06-18T19:30:08.819Z,18.20
2023-06-18T19:32:35.863Z,18.20
2023-06-18T19:35:02.857Z,18.20
2023-06-18T19:37:29.810Z,18.20
2023-06-18T19:39:56.834Z,18.20
2023-06-18T19:42:24.073Z,18.20
2023-06-18T19:44:55.540Z,18.10
2023-06-18T19:47:23.027Z,18.10
2023-06-18T19:49:49.975Z,18.10
2023-06-18T19:52:17.535Z,18.10
2023-06-18T19:54:44.590Z,18.10
2023-06-18T19:57:11.669Z,18.00
2023-06-18T19:59:38.690Z,18.00
2023-06-18T20:02:05.880Z,18.00
2023-06-18T20:04:32.959Z,18.00
2023-06-18T20:07:01.291Z,17.90
2023-06-18T20:09:28.850Z,17.90
2023-06-18T20:11:55.796Z,17.90
2023-06-18T20:14:22.810Z,17.90
2023-06-18T20:16:49.770Z,17.90
2023-06-18T20:19:16.827Z,17.90
2023-06-18T20:21:43.853Z,17.90
2023-06-18T20:24:10.840Z,17.90
2023-06-18T20:26:38.083Z,17.90
2023-06-18T20:29:05.108Z,17.80
2023-06-18T20:31:32.271Z,17.80
2023-06-18T20:33:59.466Z,17.90
2023-06-18T20:36:26.787Z,17.80
2023-06-18T20:38:53.820Z,17.80
2023-06-18T20:41:20.911Z,17.80
2023-06-18T20:43:48.057Z,17.80
2023-06-18T20:46:15.353Z,17.80
2023-06-18T20:48:43.084Z,17.80
2023-06-18T20:51:10.071Z,17.80
2023-06-18T20:53:37.889Z,17.80
2023-06-18T20:56:06.532Z,17.70
2023-06-18T20:58:33.618Z,17.70
2023-06-18T21:01:00.653Z,17.70
2023-06-18T21:03:28.525Z,17.70
2023-06-18T21:05:56.072Z,17.70
2023-06-18T21:08:23.204Z,17.80
2023-06-18T21:10:50.340Z,17.70
2023-06-18T21:13:17.281Z,17.70
2023-06-18T21:15:44.318Z,17.70
2023-06-18T21:18:11.388Z,17.70
2023-06-18T21:20:38.440Z,17.70
2023-06-18T21:23:05.428Z,17.60
2023-06-18T21:25:32.406Z,17.60
2023-06-18T21:27:59.380Z,17.60
2023-06-18T21:30:26.452Z,17.60
2023-06-18T21:32:54.041Z,17.60
2023-06-18T21:35:21.566Z,17.60
2023-06-18T21:37:48.666Z,17.60
2023-06-18T21:40:15.985Z,17.60
2023-06-18T21:42:45.968Z,17.60
2023-06-18T21:45:13.477Z,17.60
2023-06-18T21:47:41.197Z,17.60
2023-06-18T21:50:09.803Z,17.60
2023-06-18T21:52:37.221Z,17.60
2023-06-18T21:55:04.544Z,17.60
2023-06-18T21:57:31.569Z,17.60
2023-06-18T21:59:58.584Z,17.60
2023-06-18T22:02:25.731Z,17.60
2023-06-18T22:04:52.999Z,17.60
2023-06-18T22:07:20.093Z,17.60
2023-06-18T22:09:47.079Z,17.60
2023-06-18T22:12:14.067Z,17.60
2023-06-18T22:14:41.132Z,17.60
2023-06-18T22:17:08.752Z,17.50
2023-06-18T22:19:35.936Z,17.50
2023-06-18T22:22:03.124Z,17.50
2023-06-18T22:24:30.214Z,17.50
2023-06-18T22:26:57.847Z,17.50
2023-06-18T22:29:25.051Z,17.50
2023-06-18T22:31:52.375Z,17.50
2023-06-18T22:34:28.622Z,17.50
2023-06-18T22:37:07.204Z,17.50
2023-06-18T22:39:34.152Z,17.50
2023-06-18T22:42:01.183Z,17.50
2023-06-18T22:44:28.141Z,17.50
2023-06-18T22:46:55.178Z,17.50
2023-06-18T22:49:22.161Z,17.50
2023-06-18T22:51:56.651Z,17.50
2023-06-18T22:54:24.959Z,17.50
2023-06-18T22:56:52.252Z,17.50
2023-06-18T22:59:19.709Z,17.50
2023-06-18T23:01:47.261Z,17.50
2023-06-18T23:04:14.592Z,17.50
2023-06-18T23:06:41.698Z,17.50
2023-06-18T23:09:09.824Z,17.50
2023-06-18T23:11:36.757Z,17.50
2023-06-18T23:14:04.305Z,17.50
2023-06-18T23:16:31.319Z,17.50
2023-06-18T23:18:59.080Z,17.50
2023-06-18T23:21:38.492Z,17.60
2023-06-18T23:24:13.073Z,17.60
2023-06-18T23:26:40.416Z,17.50
2023-06-18T23:29:10.951Z,17.60
2023-06-18T23:31:38.798Z,17.50
2023-06-18T23:34:07.591Z,17.50
2023-06-18T23:36:36.445Z,17.50
2023-06-18T23:39:04.186Z,17.50
2023-06-18T23:41:31.202Z,17.50
2023-06-18T23:43:58.140Z,17.50
2023-06-18T23:46:25.341Z,17.50
2023-06-18T23:48:52.442Z,17.50
2023-06-18T23:51:20.782Z,17.50
2023-06-18T23:53:48.550Z,17.50
2023-06-18T23:56:16.027Z,17.50
2023-06-18T23:58:43.108Z,17.50
